METAR Data
IDs: Format: Raw Decoded Include TAF

Data at: 1537 UTC 03 Dec 2021

KMGJ 031454Z AUTO 32012G21KT 10SM OVC047 03/M05 A2993 RMK AO2 SLP137 T00331050 51033